sensor_id;sensor_type;location;lat;lon;timestamp;temperature;humidity
7512;DHT22;9999;48.780;9.146;2023-09-07T00:00:34;18.20;99.90
7512;DHT22;9999;48.780;9.146;2023-09-07T00:03:01;18.30;99.90
7512;DHT22;9999;48.780;9.146;2023-09-07T00:05:27;18.30;99.90
7512;DHT22;9999;48.780;9.146;2023-09-07T00:07:54;18.30;99.90
7512;DHT22;9999;48.780;9.146;2023-09-07T00:10:21;18.30;99.90
7512;DHT22;9999;48.780;9.146;2023-09-07T00:12:49;18.30;99.90
7512;DHT22;9999;48.780;9.146;2023-09-07T00:15:16;18.30;99.90
7512;DHT22;9999;48.780;9.146;2023-09-07T00:17:44;18.20;99.90
7512;DHT22;9999;48.780;9.146;2023-09-07T00:20:11;18.20;99.90
7512;DHT22;9999;48.780;9.146;2023-09-07T00:22:40;18.10;99.90
7512;DHT22;9999;48.780;9.146;2023-09-07T00:25:07;17.90;99.90
7512;DHT22;9999;48.780;9.146;2023-09-07T00:27:35;18.00;99.90
7512;DHT22;9999;48.780;9.146;2023-09-07T00:30:04;18.00;99.90
7512;DHT22;9999;48.780;9.146;2023-09-07T00:32:32;17.90;99.90
7512;DHT22;9999;48.780;9.146;2023-09-07T00:34:59;17.90;99.90
7512;DHT22;9999;48.780;9.146;2023-09-07T00:37:26;17.80;99.90
7512;DHT22;9999;48.780;9.146;2023-09-07T00:39:53;17.50;99.90
7512;DHT22;9999;48.780;9.146;2023-09-07T00:42:19;17.40;99.90
7512;DHT22;9999;48.780;9.146;2023-09-07T00:44:46;17.40;99.90
7512;DHT22;9999;48.780;9.146;2023-09-07T00:47:15;17.40;99.90
7512;DHT22;9999;48.780;9.146;2023-09-07T00:56:54;17.60;99.90
7512;DHT22;9999;48.780;9.146;2023-09-07T00:59:21;17.70;99.90
7512;DHT22;9999;48.780;9.146;2023-09-07T01:01:49;17.60;99.90
7512;DHT22;9999;48.780;9.146;2023-09-07T01:04:19;17.60;99.90
7512;DHT22;9999;48.780;9.146;2023-09-07T01:06:52;17.60;99.90
7512;DHT22;9999;48.780;9.146;2023-09-07T01:09:24;17.60;99.90
7512;DHT22;9999;48.780;9.146;2023-09-07T01:11:52;17.60;99.90
7512;DHT22;9999;48.780;9.146;2023-09-07T01:14:19;17.60;99.90
7512;DHT22;9999;48.780;9.146;2023-09-07T01:16:46;17.50;99.90
7512;DHT22;9999;48.780;9.146;2023-09-07T01:19:13;17.50;99.90
7512;DHT22;9999;48.780;9.146;2023-09-07T01:21:41;17.50;99.90
7512;DHT22;9999;48.780;9.146;2023-09-07T01:24:09;17.40;99.90
7512;DHT22;9999;48.780;9.146;2023-09-07T01:26:36;17.40;99.90
7512;DHT22;9999;48.780;9.146;2023-09-07T01:29:05;17.30;99.90
7512;DHT22;9999;48.780;9.146;2023-09-07T01:31:34;17.30;99.90
7512;DHT22;9999;48.780;9.146;2023-09-07T01:34:01;17.30;99.90
7512;DHT22;9999;48.780;9.146;2023-09-07T01:36:28;17.30;99.90
7512;DHT22;9999;48.780;9.146;2023-09-07T01:38:57;17.20;99.90
7512;DHT22;9999;48.780;9.146;2023-09-07T01:41:26;17.20;99.90
7512;DHT22;9999;48.780;9.146;2023-09-07T01:43:55;17.30;99.90
7512;DHT22;9999;48.780;9.146;2023-09-07T01:46:22;17.20;99.90
7512;DHT22;9999;48.780;9.146;2023-09-07T01:48:48;17.20;99.90
7512;DHT22;9999;48.780;9.146;2023-09-07T01:51:15;17.10;99.90
7512;DHT22;9999;48.780;9.146;2023-09-07T01:53:43;17.10;99.90
7512;DHT22;9999;48.780;9.146;2023-09-07T01:56:11;17.10;99.90
7512;DHT22;9999;48.780;9.146;2023-09-07T01:58:37;17.10;99.90
7512;DHT22;9999;48.780;9.146;2023-09-07T02:01:06;17.10;99.90
7512;DHT22;9999;48.780;9.146;2023-09-07T02:03:33;17.00;99.90
7512;DHT22;9999;48.780;9.146;2023-09-07T02:06:00;17.00;99.90
7512;DHT22;9999;48.780;9.146;2023-09-07T02:08:27;17.00;99.90
7512;DHT22;9999;48.780;9.146;2023-09-07T02:10:54;16.90;99.90
7512;DHT22;9999;48.780;9.146;2023-09-07T02:13:23;17.00;99.90
7512;DHT22;9999;48.780;9.146;2023-09-07T02:15:50;16.90;99.90
7512;DHT22;9999;48.780;9.146;2023-09-07T02:18:16;17.00;99.90
7512;DHT22;9999;48.780;9.146;2023-09-07T02:20:43;16.90;99.90
7512;DHT22;9999;48.780;9.146;2023-09-07T02:23:11;16.90;99.90
7512;DHT22;9999;48.780;9.146;2023-09-07T02:25:38;16.90;99.90
7512;DHT22;9999;48.780;9.146;2023-09-07T02:28:05;16.80;99.90
7512;DHT22;9999;48.780;9.146;2023-09-07T02:30:33;16.80;99.90
7512;DHT22;9999;48.780;9.146;2023-09-07T02:33:00;16.70;99.90
7512;DHT22;9999;48.780;9.146;2023-09-07T02:35:27;16.70;99.90
7512;DHT22;9999;48.780;9.146;2023-09-07T02:37:54;16.80;99.90
7512;DHT22;9999;48.780;9.146;2023-09-07T02:40:20;16.80;99.90
7512;DHT22;9999;48.780;9.146;2023-09-07T02:42:48;16.70;99.90
7512;DHT22;9999;48.780;9.146;2023-09-07T02:45:15;16.60;99.90
7512;DHT22;9999;48.780;9.146;2023-09-07T02:47:43;16.60;99.90
7512;DHT22;9999;48.780;9.146;2023-09-07T02:50:10;16.60;99.90
7512;DHT22;9999;48.780;9.146;2023-09-07T02:52:37;16.60;99.90
7512;DHT22;9999;48.780;9.146;2023-09-07T02:55:04;16.60;99.90
7512;DHT22;9999;48.780;9.146;2023-09-07T02:57:32;16.60;99.90
7512;DHT22;9999;48.780;9.146;2023-09-07T02:59:59;16.60;99.90
7512;DHT22;9999;48.780;9.146;2023-09-07T03:02:25;16.50;99.90
7512;DHT22;9999;48.780;9.146;2023-09-07T03:04:54;16.50;99.90
7512;DHT22;9999;48.780;9.146;2023-09-07T03:07:24;16.50;99.90
7512;DHT22;9999;48.780;9.146;2023-09-07T03:09:51;16.50;99.90
7512;DHT22;9999;48.780;9.146;2023-09-07T03:12:18;16.50;99.90
7512;DHT22;9999;48.780;9.146;2023-09-07T03:14:46;16.50;99.90
7512;DHT22;9999;48.780;9.146;2023-09-07T03:17:14;16.40;99.90
7512;DHT22;9999;48.780;9.146;2023-09-07T03:19:42;16.40;99.90
7512;DHT22;9999;48.780;9.146;2023-09-07T03:22:10;16.20;99.90
7512;DHT22;9999;48.780;9.146;2023-09-07T03:24:37;16.40;99.90
7512;DHT22;9999;48.780;9.146;2023-09-07T03:27:04;16.30;99.90
7512;DHT22;9999;48.780;9.146;2023-09-07T03:29:32;16.40;99.90
7512;DHT22;9999;48.780;9.146;2023-09-07T03:32:02;16.40;99.90
7512;DHT22;9999;48.780;9.146;2023-09-07T03:34:29;16.40;99.90
7512;DHT22;9999;48.780;9.146;2023-09-07T03:36:55;16.30;99.90
7512;DHT22;9999;48.780;9.146;2023-09-07T03:39:24;16.30;99.90
7512;DHT22;9999;48.780;9.146;2023-09-07T03:41:51;16.30;99.90
7512;DHT22;9999;48.780;9.146;2023-09-07T03:44:19;16.30;99.90
7512;DHT22;9999;48.780;9.146;2023-09-07T03:46:45;16.20;99.90
7512;DHT22;9999;48.780;9.146;2023-09-07T03:49:13;16.10;99.90
7512;DHT22;9999;48.780;9.146;2023-09-07T03:51:39;16.10;99.90
7512;DHT22;9999;48.780;9.146;2023-09-07T03:54:06;16.10;99.90
7512;DHT22;9999;48.780;9.146;2023-09-07T03:56:34;16.10;99.90
7512;DHT22;9999;48.780;9.146;2023-09-07T03:59:06;16.10;99.90
7512;DHT22;9999;48.780;9.146;2023-09-07T04:01:33;16.10;99.90
7512;DHT22;9999;48.780;9.146;2023-09-07T04:04:00;16.10;99.90
7512;DHT22;9999;48.780;9.146;2023-09-07T04:06:26;16.10;99.90
7512;DHT22;9999;48.780;9.146;2023-09-07T04:08:53;16.10;99.90
7512;DHT22;9999;48.780;9.146;2023-09-07T04:11:20;16.10;99.90
7512;DHT22;9999;48.780;9.146;2023-09-07T04:13:48;16.10;99.90
7512;DHT22;9999;48.780;9.146;2023-09-07T04:16:15;16.10;99.90
7512;DHT22;9999;48.780;9.146;2023-09-07T04:18:42;16.00;99.90
7512;DHT22;9999;48.780;9.146;2023-09-07T04:21:10;16.00;99.90
7512;DHT22;9999;48.780;9.146;2023-09-07T04:23:36;16.00;99.90
7512;DHT22;9999;48.780;9.146;2023-09-07T04:26:06;16.00;99.90
7512;DHT22;9999;48.780;9.146;2023-09-07T04:28:34;15.90;99.90
7512;DHT22;9999;48.780;9.146;2023-09-07T04:31:03;15.80;99.90
7512;DHT22;9999;48.780;9.146;2023-09-07T04:33:30;15.70;99.90
7512;DHT22;9999;48.780;9.146;2023-09-07T04:36:05;15.70;99.90
7512;DHT22;9999;48.780;9.146;2023-09-07T04:38:32;15.70;99.90
7512;DHT22;9999;48.780;9.146;2023-09-07T04:41:06;15.70;99.90
7512;DHT22;9999;48.780;9.146;2023-09-07T04:43:33;15.70;99.90
7512;DHT22;9999;48.780;9.146;2023-09-07T04:46:02;15.60;99.90
7512;DHT22;9999;48.780;9.146;2023-09-07T04:48:29;15.50;99.90
7512;DHT22;9999;48.780;9.146;2023-09-07T04:51:00;15.50;99.90
7512;DHT22;9999;48.780;9.146;2023-09-07T04:53:28;15.50;99.90
7512;DHT22;9999;48.780;9.146;2023-09-07T04:55:55;15.50;99.90
7512;DHT22;9999;48.780;9.146;2023-09-07T04:58:22;15.50;99.90
7512;DHT22;9999;48.780;9.146;2023-09-07T05:00:49;15.50;99.90
7512;DHT22;9999;48.780;9.146;2023-09-07T05:03:17;15.60;99.90
7512;DHT22;9999;48.780;9.146;2023-09-07T05:05:44;15.60;99.90
7512;DHT22;9999;48.780;9.146;2023-09-07T05:08:12;15.60;99.90
7512;DHT22;9999;48.780;9.146;2023-09-07T05:10:38;15.60;99.90
7512;DHT22;9999;48.780;9.146;2023-09-07T05:13:05;15.60;99.90
7512;DHT22;9999;48.780;9.146;2023-09-07T05:15:32;15.60;99.90
7512;DHT22;9999;48.780;9.146;2023-09-07T05:17:59;15.60;99.90
7512;DHT22;9999;48.780;9.146;2023-09-07T05:20:30;15.50;99.90
7512;DHT22;9999;48.780;9.146;2023-09-07T05:22:57;15.50;99.90
7512;DHT22;9999;48.780;9.146;2023-09-07T05:25:25;15.60;99.90
7512;DHT22;9999;48.780;9.146;2023-09-07T05:27:51;15.60;99.90
7512;DHT22;9999;48.780;9.146;2023-09-07T05:30:18;15.50;99.90
7512;DHT22;9999;48.780;9.146;2023-09-07T05:32:45;15.50;99.90
7512;DHT22;9999;48.780;9.146;2023-09-07T05:35:12;15.50;99.90
7512;DHT22;9999;48.780;9.146;2023-09-07T05:37:43;15.50;99.90
7512;DHT22;9999;48.780;9.146;2023-09-07T05:40:12;15.50;99.90
7512;DHT22;9999;48.780;9.146;2023-09-07T05:42:39;15.50;99.90
7512;DHT22;9999;48.780;9.146;2023-09-07T05:45:07;15.50;99.90
7512;DHT22;9999;48.780;9.146;2023-09-07T05:47:34;15.60;99.90
7512;DHT22;9999;48.780;9.146;2023-09-07T05:50:01;15.60;99.90
7512;DHT22;9999;48.780;9.146;2023-09-07T05:52:28;15.60;99.90
7512;DHT22;9999;48.780;9.146;2023-09-07T05:54:56;15.60;99.90
7512;DHT22;9999;48.780;9.146;2023-09-07T05:57:23;15.60;99.90
7512;DHT22;9999;48.780;9.146;2023-09-07T05:59:50;15.70;99.90
7512;DHT22;9999;48.780;9.146;2023-09-07T06:02:18;15.70;99.90
7512;DHT22;9999;48.780;9.146;2023-09-07T06:04:45;15.70;99.90
7512;DHT22;9999;48.780;9.146;2023-09-07T06:07:12;15.70;99.90
7512;DHT22;9999;48.780;9.146;2023-09-07T06:09:39;15.70;99.90
7512;DHT22;9999;48.780;9.146;2023-09-07T06:12:07;15.80;99.90
7512;DHT22;9999;48.780;9.146;2023-09-07T06:14:34;15.80;99.90
7512;DHT22;9999;48.780;9.146;2023-09-07T06:17:04;15.90;99.90
7512;DHT22;9999;48.780;9.146;2023-09-07T06:19:31;15.90;99.90
7512;DHT22;9999;48.780;9.146;2023-09-07T06:21:59;15.90;99.90
7512;DHT22;9999;48.780;9.146;2023-09-07T06:24:26;15.90;99.90
7512;DHT22;9999;48.780;9.146;2023-09-07T06:26:53;16.00;99.90
7512;DHT22;9999;48.780;9.146;2023-09-07T06:29:21;16.00;99.90
7512;DHT22;9999;48.780;9.146;2023-09-07T06:31:48;16.10;99.90
7512;DHT22;9999;48.780;9.146;2023-09-07T06:34:19;16.10;99.90
7512;DHT22;9999;48.780;9.146;2023-09-07T06:36:46;16.10;99.90
7512;DHT22;9999;48.780;9.146;2023-09-07T06:39:13;16.20;99.90
7512;DHT22;9999;48.780;9.146;2023-09-07T06:41:48;16.20;99.90
7512;DHT22;9999;48.780;9.146;2023-09-07T06:44:18;16.30;99.90
7512;DHT22;9999;48.780;9.146;2023-09-07T06:46:47;16.50;99.90
7512;DHT22;9999;48.780;9.146;2023-09-07T06:49:16;16.60;99.90
7512;DHT22;9999;48.780;9.146;2023-09-07T06:51:44;16.90;99.90
7512;DHT22;9999;48.780;9.146;2023-09-07T06:54:12;17.20;99.90
7512;DHT22;9999;48.780;9.146;2023-09-07T06:56:40;17.50;99.90
7512;DHT22;9999;48.780;9.146;2023-09-07T06:59:07;17.80;99.90
7512;DHT22;9999;48.780;9.146;2023-09-07T07:01:34;18.00;99.90
7512;DHT22;9999;48.780;9.146;2023-09-07T07:04:05;18.30;99.90
7512;DHT22;9999;48.780;9.146;2023-09-07T07:06:32;18.30;99.90
7512;DHT22;9999;48.780;9.146;2023-09-07T07:08:59;18.30;99.90
7512;DHT22;9999;48.780;9.146;2023-09-07T07:11:27;18.70;99.90
7512;DHT22;9999;48.780;9.146;2023-09-07T07:13:54;19.40;99.90
7512;DHT22;9999;48.780;9.146;2023-09-07T07:16:21;19.60;99.90
7512;DHT22;9999;48.780;9.146;2023-09-07T07:18:50;20.00;99.90
7512;DHT22;9999;48.780;9.146;2023-09-07T07:21:18;20.20;99.90
7512;DHT22;9999;48.780;9.146;2023-09-07T07:23:45;20.70;99.90
7512;DHT22;9999;48.780;9.146;2023-09-07T07:26:12;21.00;99.90
7512;DHT22;9999;48.780;9.146;2023-09-07T07:28:39;21.60;99.90
7512;DHT22;9999;48.780;9.146;2023-09-07T07:31:09;21.90;99.90
7512;DHT22;9999;48.780;9.146;2023-09-07T07:33:38;22.00;99.90
7512;DHT22;9999;48.780;9.146;2023-09-07T07:36:05;22.20;99.90
7512;DHT22;9999;48.780;9.146;2023-09-07T07:38:34;22.20;99.90
7512;DHT22;9999;48.780;9.146;2023-09-07T07:41:01;22.60;99.90
7512;DHT22;9999;48.780;9.146;2023-09-07T07:43:28;23.00;99.90
7512;DHT22;9999;48.780;9.146;2023-09-07T07:45:55;23.20;99.90
7512;DHT22;9999;48.780;9.146;2023-09-07T07:48:22;23.10;99.90
7512;DHT22;9999;48.780;9.146;2023-09-07T07:50:49;23.20;99.90
7512;DHT22;9999;48.780;9.146;2023-09-07T07:53:16;23.30;99.90
7512;DHT22;9999;48.780;9.146;2023-09-07T07:55:46;22.80;99.90
7512;DHT22;9999;48.780;9.146;2023-09-07T07:58:16;22.90;99.90
7512;DHT22;9999;48.780;9.146;2023-09-07T08:00:43;22.80;99.90
7512;DHT22;9999;48.780;9.146;2023-09-07T08:03:13;22.60;99.90
7512;DHT22;9999;48.780;9.146;2023-09-07T08:05:40;22.20;99.90
7512;DHT22;9999;48.780;9.146;2023-09-07T08:08:08;21.90;99.90
7512;DHT22;9999;48.780;9.146;2023-09-07T08:10:35;22.00;99.90
7512;DHT22;9999;48.780;9.146;2023-09-07T08:13:05;22.40;99.90
7512;DHT22;9999;48.780;9.146;2023-09-07T08:15:32;22.00;99.90
7512;DHT22;9999;48.780;9.146;2023-09-07T08:18:00;21.50;99.90
7512;DHT22;9999;48.780;9.146;2023-09-07T08:20:27;21.90;99.90
7512;DHT22;9999;48.780;9.146;2023-09-07T08:22:55;22.00;99.90
7512;DHT22;9999;48.780;9.146;2023-09-07T08:25:23;21.90;99.90
7512;DHT22;9999;48.780;9.146;2023-09-07T08:27:51;22.00;99.90
7512;DHT22;9999;48.780;9.146;2023-09-07T08:30:22;22.10;99.90
7512;DHT22;9999;48.780;9.146;2023-09-07T08:32:51;22.20;99.90
7512;DHT22;9999;48.780;9.146;2023-09-07T08:35:18;22.40;99.90
7512;DHT22;9999;48.780;9.146;2023-09-07T08:37:45;22.30;99.90
7512;DHT22;9999;48.780;9.146;2023-09-07T08:40:11;22.20;99.90
7512;DHT22;9999;48.780;9.146;2023-09-07T08:42:38;22.30;99.90
7512;DHT22;9999;48.780;9.146;2023-09-07T08:45:08;22.30;99.90
7512;DHT22;9999;48.780;9.146;2023-09-07T08:47:37;22.40;99.90
7512;DHT22;9999;48.780;9.146;2023-09-07T08:50:06;22.40;99.90
7512;DHT22;9999;48.780;9.146;2023-09-07T08:52:34;22.30;99.90
7512;DHT22;9999;48.780;9.146;2023-09-07T08:55:01;22.30;99.90
7512;DHT22;9999;48.780;9.146;2023-09-07T08:57:30;22.40;99.90
7512;DHT22;9999;48.780;9.146;2023-09-07T08:59:57;22.50;99.90
7512;DHT22;9999;48.780;9.146;2023-09-07T09:02:24;22.60;99.90
7512;DHT22;9999;48.780;9.146;2023-09-07T09:04:52;22.70;99.90
7512;DHT22;9999;48.780;9.146;2023-09-07T09:07:19;22.70;99.90
7512;DHT22;9999;48.780;9.146;2023-09-07T09:09:47;22.70;99.90
7512;DHT22;9999;48.780;9.146;2023-09-07T09:12:15;22.70;99.90
7512;DHT22;9999;48.780;9.146;2023-09-07T09:14:42;22.80;99.90
7512;DHT22;9999;48.780;9.146;2023-09-07T09:17:14;22.90;99.90
7512;DHT22;9999;48.780;9.146;2023-09-07T09:19:41;23.00;99.90
7512;DHT22;9999;48.780;9.146;2023-09-07T09:22:11;23.10;99.90
7512;DHT22;9999;48.780;9.146;2023-09-07T09:24:38;23.10;99.90
7512;DHT22;9999;48.780;9.146;2023-09-07T09:27:05;23.20;99.90
7512;DHT22;9999;48.780;9.146;2023-09-07T09:29:32;23.10;99.90
7512;DHT22;9999;48.780;9.146;2023-09-07T09:32:00;23.20;99.90
7512;DHT22;9999;48.780;9.146;2023-09-07T09:34:32;23.30;99.90
7512;DHT22;9999;48.780;9.146;2023-09-07T09:37:00;23.30;99.90
7512;DHT22;9999;48.780;9.146;2023-09-07T09:39:29;23.50;99.90
7512;DHT22;9999;48.780;9.146;2023-09-07T09:41:56;23.70;99.90
7512;DHT22;9999;48.780;9.146;2023-09-07T09:44:24;23.70;99.90
7512;DHT22;9999;48.780;9.146;2023-09-07T09:46:52;23.80;99.90
7512;DHT22;9999;48.780;9.146;2023-09-07T09:49:20;23.80;99.90
7512;DHT22;9999;48.780;9.146;2023-09-07T09:51:48;24.00;99.90
7512;DHT22;9999;48.780;9.146;2023-09-07T09:54:17;24.10;99.90
7512;DHT22;9999;48.780;9.146;2023-09-07T09:56:46;24.20;99.90
7512;DHT22;9999;48.780;9.146;2023-09-07T09:59:13;24.10;99.90
7512;DHT22;9999;48.780;9.146;2023-09-07T10:01:44;24.20;99.90
7512;DHT22;9999;48.780;9.146;2023-09-07T10:04:13;24.30;99.90
7512;DHT22;9999;48.780;9.146;2023-09-07T10:06:52;24.40;99.90
7512;DHT22;9999;48.780;9.146;2023-09-07T10:09:23;24.60;99.90
7512;DHT22;9999;48.780;9.146;2023-09-07T10:11:57;24.70;99.90
7512;DHT22;9999;48.780;9.146;2023-09-07T10:14:25;24.70;99.90
7512;DHT22;9999;48.780;9.146;2023-09-07T10:16:53;24.80;99.90
7512;DHT22;9999;48.780;9.146;2023-09-07T10:19:25;24.90;99.90
7512;DHT22;9999;48.780;9.146;2023-09-07T10:21:53;25.10;99.90
7512;DHT22;9999;48.780;9.146;2023-09-07T10:24:24;25.10;99.90
7512;DHT22;9999;48.780;9.146;2023-09-07T10:27:01;25.10;99.90
7512;DHT22;9999;48.780;9.146;2023-09-07T10:29:29;25.20;99.90
7512;DHT22;9999;48.780;9.146;2023-09-07T10:31:55;25.40;99.90
7512;DHT22;9999;48.780;9.146;2023-09-07T10:34:34;25.40;99.90
7512;DHT22;9999;48.780;9.146;2023-09-07T10:37:01;25.70;99.90
7512;DHT22;9999;48.780;9.146;2023-09-07T10:39:31;25.80;99.90
7512;DHT22;9999;48.780;9.146;2023-09-07T10:41:59;25.60;99.90
7512;DHT22;9999;48.780;9.146;2023-09-07T10:44:26;25.80;99.90
7512;DHT22;9999;48.780;9.146;2023-09-07T10:46:53;26.20;99.90
7512;DHT22;9999;48.780;9.146;2023-09-07T10:49:20;26.10;99.90
7512;DHT22;9999;48.780;9.146;2023-09-07T10:51:48;26.00;99.90
7512;DHT22;9999;48.780;9.146;2023-09-07T10:54:15;26.20;99.90
7512;DHT22;9999;48.780;9.146;2023-09-07T10:56:46;26.40;99.90
7512;DHT22;9999;48.780;9.146;2023-09-07T10:59:15;26.40;99.90
7512;DHT22;9999;48.780;9.146;2023-09-07T11:01:44;26.70;99.90
7512;DHT22;9999;48.780;9.146;2023-09-07T11:04:11;26.60;99.90
7512;DHT22;9999;48.780;9.146;2023-09-07T11:06:40;26.50;99.90
7512;DHT22;9999;48.780;9.146;2023-09-07T11:09:08;26.40;99.90
7512;DHT22;9999;48.780;9.146;2023-09-07T11:11:36;26.50;99.90
7512;DHT22;9999;48.780;9.146;2023-09-07T11:14:03;26.50;99.90
7512;DHT22;9999;48.780;9.146;2023-09-07T11:16:33;26.60;99.90
7512;DHT22;9999;48.780;9.146;2023-09-07T11:19:03;26.50;99.90
7512;DHT22;9999;48.780;9.146;2023-09-07T11:21:30;26.70;99.90
7512;DHT22;9999;48.780;9.146;2023-09-07T11:23:58;26.80;99.90
7512;DHT22;9999;48.780;9.146;2023-09-07T11:26:25;27.10;99.90
7512;DHT22;9999;48.780;9.146;2023-09-07T11:28:51;27.50;99.90
7512;DHT22;9999;48.780;9.146;2023-09-07T11:31:19;27.40;99.90
7512;DHT22;9999;48.780;9.146;2023-09-07T11:33:48;27.40;99.90
7512;DHT22;9999;48.780;9.146;2023-09-07T11:36:15;27.50;99.90
7512;DHT22;9999;48.780;9.146;2023-09-07T11:38:43;27.70;99.90
7512;DHT22;9999;48.780;9.146;2023-09-07T11:41:10;27.60;99.90
7512;DHT22;9999;48.780;9.146;2023-09-07T11:43:37;27.80;99.90
7512;DHT22;9999;48.780;9.146;2023-09-07T11:46:05;28.00;99.90
7512;DHT22;9999;48.780;9.146;2023-09-07T11:48:32;28.20;99.90
7512;DHT22;9999;48.780;9.146;2023-09-07T11:51:01;28.40;99.90
7512;DHT22;9999;48.780;9.146;2023-09-07T11:53:28;28.30;99.90
7512;DHT22;9999;48.780;9.146;2023-09-07T11:55:56;28.20;99.90
7512;DHT22;9999;48.780;9.146;2023-09-07T11:58:23;28.30;99.90
7512;DHT22;9999;48.780;9.146;2023-09-07T12:00:52;28.20;99.90
7512;DHT22;9999;48.780;9.146;2023-09-07T12:03:19;28.40;99.90
7512;DHT22;9999;48.780;9.146;2023-09-07T12:05:46;28.60;99.90
7512;DHT22;9999;48.780;9.146;2023-09-07T12:08:14;28.60;99.90
7512;DHT22;9999;48.780;9.146;2023-09-07T12:10:42;28.50;99.90
7512;DHT22;9999;48.780;9.146;2023-09-07T12:13:08;28.40;99.90
7512;DHT22;9999;48.780;9.146;2023-09-07T12:15:35;28.40;99.90
7512;DHT22;9999;48.780;9.146;2023-09-07T12:18:03;28.50;99.90
7512;DHT22;9999;48.780;9.146;2023-09-07T12:20:30;28.70;99.90
7512;DHT22;9999;48.780;9.146;2023-09-07T12:22:56;28.80;99.90
7512;DHT22;9999;48.780;9.146;2023-09-07T12:25:24;28.70;99.90
7512;DHT22;9999;48.780;9.146;2023-09-07T12:27:52;28.80;99.40
7512;DHT22;9999;48.780;9.146;2023-09-07T12:30:19;28.80;99.30
7512;DHT22;9999;48.780;9.146;2023-09-07T12:32:46;29.00;98.20
7512;DHT22;9999;48.780;9.146;2023-09-07T12:35:13;28.90;98.60
7512;DHT22;9999;48.780;9.146;2023-09-07T12:37:40;29.10;99.50
7512;DHT22;9999;48.780;9.146;2023-09-07T12:40:08;29.20;99.90
7512;DHT22;9999;48.780;9.146;2023-09-07T12:42:39;29.10;98.10
7512;DHT22;9999;48.780;9.146;2023-09-07T12:45:07;29.00;99.90
7512;DHT22;9999;48.780;9.146;2023-09-07T12:47:34;29.20;98.00
7512;DHT22;9999;48.780;9.146;2023-09-07T12:50:01;29.40;96.40
7512;DHT22;9999;48.780;9.146;2023-09-07T12:52:28;29.10;97.80
7512;DHT22;9999;48.780;9.146;2023-09-07T12:54:55;29.30;99.70
7512;DHT22;9999;48.780;9.146;2023-09-07T12:57:22;29.30;96.80
7512;DHT22;9999;48.780;9.146;2023-09-07T12:59:50;29.20;97.50
7512;DHT22;9999;48.780;9.146;2023-09-07T13:02:17;29.30;97.80
7512;DHT22;9999;48.780;9.146;2023-09-07T13:04:44;29.30;98.00
7512;DHT22;9999;48.780;9.146;2023-09-07T13:07:10;29.40;97.00
7512;DHT22;9999;48.780;9.146;2023-09-07T13:09:37;29.20;96.60
7512;DHT22;9999;48.780;9.146;2023-09-07T13:12:05;29.20;95.90
7512;DHT22;9999;48.780;9.146;2023-09-07T13:14:32;29.30;95.70
7512;DHT22;9999;48.780;9.146;2023-09-07T13:17:00;29.50;94.30
7512;DHT22;9999;48.780;9.146;2023-09-07T13:19:27;29.30;95.30
7512;DHT22;9999;48.780;9.146;2023-09-07T13:21:54;29.30;95.00
7512;DHT22;9999;48.780;9.146;2023-09-07T13:24:21;29.30;95.30
7512;DHT22;9999;48.780;9.146;2023-09-07T13:26:50;29.40;95.30
7512;DHT22;9999;48.780;9.146;2023-09-07T13:29:17;29.50;95.20
7512;DHT22;9999;48.780;9.146;2023-09-07T13:31:44;29.70;95.60
7512;DHT22;9999;48.780;9.146;2023-09-07T13:34:12;29.90;95.10
7512;DHT22;9999;48.780;9.146;2023-09-07T13:36:39;30.00;93.30
7512;DHT22;9999;48.780;9.146;2023-09-07T13:39:05;29.80;94.40
7512;DHT22;9999;48.780;9.146;2023-09-07T13:41:32;29.60;92.90
7512;DHT22;9999;48.780;9.146;2023-09-07T13:43:59;29.60;92.60
7512;DHT22;9999;48.780;9.146;2023-09-07T13:46:26;29.50;93.80
7512;DHT22;9999;48.780;9.146;2023-09-07T13:48:53;29.30;92.30
7512;DHT22;9999;48.780;9.146;2023-09-07T13:51:21;29.30;93.70
7512;DHT22;9999;48.780;9.146;2023-09-07T13:53:48;29.50;93.60
7512;DHT22;9999;48.780;9.146;2023-09-07T13:56:15;29.50;92.80
7512;DHT22;9999;48.780;9.146;2023-09-07T13:58:42;29.40;93.80
7512;DHT22;9999;48.780;9.146;2023-09-07T14:01:09;29.40;94.20
7512;DHT22;9999;48.780;9.146;2023-09-07T14:03:36;29.40;93.00
7512;DHT22;9999;48.780;9.146;2023-09-07T14:06:03;29.40;93.40
7512;DHT22;9999;48.780;9.146;2023-09-07T14:08:31;29.60;93.40
7512;DHT22;9999;48.780;9.146;2023-09-07T14:11:00;29.60;93.10
7512;DHT22;9999;48.780;9.146;2023-09-07T14:13:27;29.60;93.40
7512;DHT22;9999;48.780;9.146;2023-09-07T14:15:54;29.60;93.40
7512;DHT22;9999;48.780;9.146;2023-09-07T14:18:21;29.80;92.30
7512;DHT22;9999;48.780;9.146;2023-09-07T14:20:47;29.60;92.30
7512;DHT22;9999;48.780;9.146;2023-09-07T14:23:14;29.60;91.30
7512;DHT22;9999;48.780;9.146;2023-09-07T14:25:42;29.60;91.30
7512;DHT22;9999;48.780;9.146;2023-09-07T14:28:10;29.90;92.20
7512;DHT22;9999;48.780;9.146;2023-09-07T14:30:37;29.80;92.50
7512;DHT22;9999;48.780;9.146;2023-09-07T14:33:04;29.90;91.70
7512;DHT22;9999;48.780;9.146;2023-09-07T14:35:31;29.90;91.70
7512;DHT22;9999;48.780;9.146;2023-09-07T14:37:58;29.90;91.70
7512;DHT22;9999;48.780;9.146;2023-09-07T14:40:26;29.60;92.10
7512;DHT22;9999;48.780;9.146;2023-09-07T14:42:54;29.60;91.30
7512;DHT22;9999;48.780;9.146;2023-09-07T14:45:23;29.60;90.80
7512;DHT22;9999;48.780;9.146;2023-09-07T14:47:50;29.30;91.60
7512;DHT22;9999;48.780;9.146;2023-09-07T14:50:17;29.30;91.60
7512;DHT22;9999;48.780;9.146;2023-09-07T14:52:44;29.40;92.00
7512;DHT22;9999;48.780;9.146;2023-09-07T14:55:12;29.30;91.40
7512;DHT22;9999;48.780;9.146;2023-09-07T14:57:39;29.30;92.00
7512;DHT22;9999;48.780;9.146;2023-09-07T15:00:10;29.30;93.20
7512;DHT22;9999;48.780;9.146;2023-09-07T15:02:37;29.30;91.70
7512;DHT22;9999;48.780;9.146;2023-09-07T15:05:04;29.30;91.80
7512;DHT22;9999;48.780;9.146;2023-09-07T15:07:31;29.20;91.60
7512;DHT22;9999;48.780;9.146;2023-09-07T15:09:58;29.30;92.10
7512;DHT22;9999;48.780;9.146;2023-09-07T15:12:25;29.40;91.40
7512;DHT22;9999;48.780;9.146;2023-09-07T15:14:52;29.20;91.30
7512;DHT22;9999;48.780;9.146;2023-09-07T15:17:20;29.30;91.30
7512;DHT22;9999;48.780;9.146;2023-09-07T15:19:47;29.50;90.00
7512;DHT22;9999;48.780;9.146;2023-09-07T15:22:14;29.40;91.20
7512;DHT22;9999;48.780;9.146;2023-09-07T15:24:41;29.10;91.00
7512;DHT22;9999;48.780;9.146;2023-09-07T15:27:08;29.10;91.30
7512;DHT22;9999;48.780;9.146;2023-09-07T15:29:36;29.00;91.30
7512;DHT22;9999;48.780;9.146;2023-09-07T15:32:03;29.00;91.50
7512;DHT22;9999;48.780;9.146;2023-09-07T15:34:32;29.00;91.80
7512;DHT22;9999;48.780;9.146;2023-09-07T15:36:59;28.90;91.60
7512;DHT22;9999;48.780;9.146;2023-09-07T15:39:26;28.80;92.40
7512;DHT22;9999;48.780;9.146;2023-09-07T15:41:54;28.90;92.60
7512;DHT22;9999;48.780;9.146;2023-09-07T15:44:21;28.80;93.20
7512;DHT22;9999;48.780;9.146;2023-09-07T15:46:49;28.80;93.20
7512;DHT22;9999;48.780;9.146;2023-09-07T15:49:16;28.60;91.70
7512;DHT22;9999;48.780;9.146;2023-09-07T15:51:45;28.60;92.90
7512;DHT22;9999;48.780;9.146;2023-09-07T15:54:12;28.60;92.00
7512;DHT22;9999;48.780;9.146;2023-09-07T15:56:39;28.50;92.40
7512;DHT22;9999;48.780;9.146;2023-09-07T15:59:06;28.50;93.20
7512;DHT22;9999;48.780;9.146;2023-09-07T16:01:33;28.40;93.60
7512;DHT22;9999;48.780;9.146;2023-09-07T16:04:00;28.40;93.70
7512;DHT22;9999;48.780;9.146;2023-09-07T16:06:28;28.40;92.80
7512;DHT22;9999;48.780;9.146;2023-09-07T16:08:56;28.30;92.40
7512;DHT22;9999;48.780;9.146;2023-09-07T16:11:22;27.90;92.00